Time;durP1;ratioP1;P1;durP2;ratioP2;P2;SDS_P1;SDS_P2;PMS_P1;PMS_P2;Temp;Humidity;BMP_temperature;BMP_pressure;BME280_temperature;BME280_humidity;BME280_pressure;Samples;Min_cycle;Max_cycle;Signal;HPM_P1;HPM_P2
2023/03/20 00:00:18;;;;;;;;;19.50;18.50;23.80;36.70;;;;;;111798;1260;49433;-66
2023/03/20 00:03:05;;;;;;;;;21.00;20.00;23.80;36.60;;;;;;111817;1259;49517;-65
2023/03/20 00:05:32;;;;;;;;;19.00;18.00;23.80;36.60;;;;;;111886;1259;46582;-66
2023/03/20 00:07:58;;;;;;;;;21.00;20.00;23.80;36.60;;;;;;111904;1259;57781;-66
2023/03/20 00:10:31;;;;;;;;;20.00;19.00;23.80;36.60;;;;;;111942;1255;53680;-66
2023/03/20 00:12:57;;;;;;;;;19.00;18.00;23.80;36.60;;;;;;111821;1260;49330;-67
2023/03/20 00:15:30;;;;;;;;;21.00;18.00;23.80;36.60;;;;;;111886;1255;50357;-67
2023/03/20 00:17:56;;;;;;;;;23.00;21.00;23.70;36.50;;;;;;111892;1259;47085;-65
2023/03/20 00:20:23;;;;;;;;;23.00;21.50;23.70;36.50;;;;;;111886;1259;56512;-66
2023/03/20 00:22:50;;;;;;;;;23.00;19.00;23.70;36.50;;;;;;111817;1256;53564;-65
2023/03/20 00:25:19;;;;;;;;;18.00;17.00;23.70;36.50;;;;;;111919;1259;50387;-66
2023/03/20 00:27:45;;;;;;;;;19.33;18.33;23.70;36.50;;;;;;111950;1258;49777;-67
2023/03/20 00:30:18;;;;;;;;;29.00;21.00;23.70;36.50;;;;;;111804;1260;46531;-66
2023/03/20 00:32:46;;;;;;;;;23.00;21.00;23.70;36.50;;;;;;111841;1260;57104;-66
2023/03/20 00:35:24;;;;;;;;;22.50;20.50;23.70;36.50;;;;;;111861;1259;53463;-67
2023/03/20 00:37:51;;;;;;;;;27.00;21.33;23.70;36.50;;;;;;111853;1260;49231;-67
2023/03/20 00:40:18;;;;;;;;;22.00;18.50;23.70;36.50;;;;;;111896;1259;49417;-66
2023/03/20 00:42:49;;;;;;;;;21.00;20.00;23.70;36.50;;;;;;111856;1259;45896;-67
2023/03/20 00:45:20;;;;;;;;;25.25;20.25;23.60;36.40;;;;;;111838;1259;57532;-66
2023/03/20 00:47:50;;;;;;;;;23.00;22.00;23.60;36.40;;;;;;111855;1257;54962;-66
2023/03/20 00:50:22;;;;;;;;;21.50;20.75;23.60;36.40;;;;;;111833;1259;50333;-66
2023/03/20 00:52:52;;;;;;;;;18.50;17.50;23.70;36.40;;;;;;111743;1261;49822;-66
2023/03/20 00:55:21;;;;;;;;;22.00;19.00;23.60;36.40;;;;;;111920;1259;46602;-66
2023/03/20 00:57:51;;;;;;;;;22.00;20.00;23.60;36.40;;;;;;111828;1259;56672;-66
2023/03/20 01:00:25;;;;;;;;;20.00;19.00;23.60;36.40;;;;;;111905;1259;54349;-66
2023/03/20 01:02:52;;;;;;;;;25.00;22.00;23.60;36.40;;;;;;111718;1260;49342;-66
2023/03/20 01:05:19;;;;;;;;;21.00;19.00;23.60;36.30;;;;;;111857;1255;50059;-66
2023/03/20 01:07:46;;;;;;;;;23.00;18.00;23.60;36.40;;;;;;111883;1259;46893;-66
2023/03/20 01:10:13;;;;;;;;;;;23.60;36.90;;;;;;111919;1259;60322;-66
2023/03/20 01:12:41;;;;;;;;;21.00;20.00;23.50;36.30;;;;;;111825;1260;54531;-67
2023/03/20 01:15:20;;;;;;;;;24.50;20.00;23.60;36.40;;;;;;111817;1260;49555;-66
2023/03/20 01:17:46;;;;;;;;;20.00;18.25;23.50;36.30;;;;;;111894;1258;49761;-67
2023/03/20 01:20:27;;;;;;;;;23.50;19.00;23.50;36.40;;;;;;111930;1260;47202;-66
2023/03/20 01:22:53;;;;;;;;;20.00;19.00;23.50;36.30;;;;;;111841;1260;56889;-67
2023/03/20 01:25:20;;;;;;;;;22.00;20.00;23.50;36.40;;;;;;111888;1259;53424;-67
2023/03/20 01:27:52;;;;;;;;;22.25;19.75;23.50;36.40;;;;;;111789;1260;49668;-67
2023/03/20 01:30:22;;;;;;;;;22.00;20.00;23.50;36.40;;;;;;111878;1259;50046;-67
2023/03/20 01:32:49;;;;;;;;;27.50;22.00;23.50;36.30;;;;;;111830;1255;46890;-67
2023/03/20 01:35:17;;;;;;;;;22.00;20.00;23.50;36.30;;;;;;111884;1259;56921;-66
2023/03/20 01:37:44;;;;;;;;;23.00;21.00;23.50;36.50;;;;;;111840;1261;54015;-67
2023/03/20 01:40:35;;;;;;;;;20.00;18.00;23.40;36.20;;;;;;111792;1260;49631;-66
2023/03/20 01:43:02;;;;;;;;;24.33;22.33;23.50;36.30;;;;;;111735;1260;51304;-67
2023/03/20 01:45:33;;;;;;;;;22.00;21.00;23.40;36.20;;;;;;111897;1259;46090;-66
2023/03/20 01:47:59;;;;;;;;;25.50;23.25;23.50;36.30;;;;;;111883;1260;57947;-66
2023/03/20 01:50:27;;;;;;;;;23.00;21.00;23.40;36.20;;;;;;111894;1257;54214;-65
2023/03/20 01:52:59;;;;;;;;;19.50;18.50;23.40;36.30;;;;;;111813;1259;49738;-66
2023/03/20 01:55:26;;;;;;;;;20.00;18.00;23.40;36.30;;;;;;111795;1261;49335;-65
2023/03/20 01:57:54;;;;;;;;;22.00;20.00;23.40;36.30;;;;;;111887;1256;46807;-66
2023/03/20 02:00:20;;;;;;;;;20.00;19.00;23.40;36.30;;;;;;111814;1259;56932;-66
2023/03/20 02:02:47;;;;;;;;;20.00;19.00;23.40;36.30;;;;;;111830;1256;53665;-66
2023/03/20 02:05:16;;;;;;;;;19.00;17.00;23.30;36.20;;;;;;111829;1258;50002;-66
2023/03/20 02:07:46;;;;;;;;;20.50;19.50;23.30;36.20;;;;;;111809;1261;50048;-67
2023/03/20 02:10:15;;;;;;;;;21.50;20.50;23.30;36.20;;;;;;111805;1260;48643;-66
2023/03/20 02:12:42;;;;;;;;;21.00;20.00;23.30;36.20;;;;;;111838;1259;57255;-66
2023/03/20 02:15:10;;;;;;;;;20.50;19.50;23.30;36.20;;;;;;111799;1260;53570;-67
2023/03/20 02:17:37;;;;;;;;;23.00;21.00;23.30;36.20;;;;;;111900;1259;49899;-66
2023/03/20 02:20:09;;;;;;;;;21.00;19.00;23.30;36.20;;;;;;111880;1260;49889;-66
2023/03/20 02:22:44;;;;;;;;;21.00;19.00;23.30;36.20;;;;;;111819;1259;46129;-67
2023/03/20 02:25:41;;;;;;;;;23.00;19.00;23.30;36.20;;;;;;111940;1258;57618;-66
2023/03/20 02:28:26;;;;;;;;;21.00;18.00;23.30;36.20;;;;;;111930;1257;54361;-67
2023/03/20 02:31:01;;;;;;;;;23.00;20.00;23.30;36.20;;;;;;111885;1259;49879;-66
2023/03/20 02:33:49;;;;;;;;;27.00;24.50;23.30;36.20;;;;;;111804;1261;49653;-66
2023/03/20 02:36:34;;;;;;;;;23.67;21.00;23.30;36.20;;;;;;111899;1259;46580;-66
2023/03/20 02:39:28;;;;;;;;;21.50;20.50;23.30;36.20;;;;;;111926;1259;56539;-66
2023/03/20 02:41:57;;;;;;;;;20.50;19.50;23.20;36.10;;;;;;111863;1255;53617;-67
2023/03/20 02:44:39;;;;;;;;;20.00;19.00;23.20;36.10;;;;;;111874;1260;50175;-65
2023/03/20 02:47:24;;;;;;;;;21.00;19.00;23.20;36.20;;;;;;111807;1261;49424;-67
2023/03/20 02:50:09;;;;;;;;;24.00;21.00;23.20;36.20;;;;;;111840;1260;46834;-66
2023/03/20 02:52:58;;;;;;;;;21.50;18.50;23.20;36.20;;;;;;111773;1260;56727;-66
2023/03/20 02:55:47;;;;;;;;;23.00;20.00;23.20;36.30;;;;;;111833;1257;53491;-65
2023/03/20 02:58:20;;;;;;;;;21.00;20.00;23.20;36.40;;;;;;111925;1260;50430;-65
2023/03/20 03:00:49;;;;;;;;;24.00;22.00;23.30;36.50;;;;;;111817;1258;49572;-65
2023/03/20 03:03:40;;;;;;;;;21.00;20.00;23.30;36.60;;;;;;111841;1259;46619;-66
2023/03/20 03:06:16;;;;;;;;;19.00;18.00;23.30;36.60;;;;;;111826;1257;57517;-66
2023/03/20 03:08:47;;;;;;;;;23.33;19.33;23.30;36.60;;;;;;111801;1260;54372;-66
2023/03/20 03:11:13;;;;;;;;;20.00;18.00;23.40;36.80;;;;;;111828;1260;49909;-66
2023/03/20 03:13:46;;;;;;;;;19.50;18.50;23.40;36.80;;;;;;111833;1260;49373;-66
2023/03/20 03:16:20;;;;;;;;;22.50;20.00;23.40;36.80;;;;;;111802;1257;47727;-66
2023/03/20 03:18:48;;;;;;;;;27.50;21.00;23.50;36.80;;;;;;111793;1260;57056;-66
2023/03/20 03:21:16;;;;;;;;;22.50;21.00;23.40;36.80;;;;;;111733;1261;54219;-65
2023/03/20 03:23:47;;;;;;;;;24.33;21.33;23.50;36.90;;;;;;111786;1260;49468;-65
2023/03/20 03:26:20;;;;;;;;;20.50;19.00;23.50;36.80;;;;;;111904;1260;49130;-66
2023/03/20 03:28:50;;;;;;;;;22.00;20.00;23.50;36.90;;;;;;111902;1260;46586;-66
2023/03/20 03:31:17;;;;;;;;;24.00;22.00;23.50;36.80;;;;;;111801;1261;57842;-66
2023/03/20 03:33:46;;;;;;;;;21.00;20.00;23.60;36.90;;;;;;111827;1260;54622;-65
2023/03/20 03:36:24;;;;;;;;;20.00;19.00;23.60;36.90;;;;;;111899;1260;50724;-65
2023/03/20 03:38:53;;;;;;;;;22.00;20.50;23.60;36.90;;;;;;111913;1259;50015;-65
2023/03/20 03:41:28;;;;;;;;;;;23.60;36.90;;;;;;111769;1261;46760;-65
2023/03/20 03:44:21;;;;;;;;;20.00;18.00;23.60;36.90;;;;;;111816;1260;57602;-66
2023/03/20 03:46:52;;;;;;;;;21.50;19.50;23.60;37.50;;;;;;111932;1258;53521;-65
2023/03/20 03:49:22;;;;;;;;;20.00;18.00;23.60;37.00;;;;;;111857;1259;50465;-65
2023/03/20 03:51:53;;;;;;;;;25.00;22.00;23.60;36.90;;;;;;111751;1261;49217;-66
2023/03/20 03:54:27;;;;;;;;;19.00;18.00;23.60;37.40;;;;;;111812;1260;46099;-65
2023/03/20 03:56:54;;;;;;;;;18.50;17.50;23.60;36.90;;;;;;111800;1260;56330;-65
2023/03/20 03:59:29;;;;;;;;;22.00;19.00;23.70;37.00;;;;;;111906;1259;54265;-65
2023/03/20 04:01:56;;;;;;;;;20.00;17.00;23.70;37.50;;;;;;111721;1260;50675;-66
2023/03/20 04:04:24;;;;;;;;;18.00;17.00;23.70;36.90;;;;;;111818;1260;49236;-65
2023/03/20 04:06:51;;;;;;;;;23.00;20.50;23.70;36.90;;;;;;111919;1259;46991;-67
2023/03/20 04:09:17;;;;;;;;;19.00;18.00;23.70;36.90;;;;;;111909;1255;56484;-67
2023/03/20 04:11:46;;;;;;;;;22.00;20.50;23.70;36.90;;;;;;111841;1259;54095;-66
2023/03/20 04:14:12;;;;;;;;;24.00;20.00;23.60;36.70;;;;;;111814;1257;49978;-67
2023/03/20 04:16:39;;;;;;;;;21.00;18.50;23.60;36.80;;;;;;111924;1255;49834;-67
2023/03/20 04:19:05;;;;;;;;;24.50;20.00;23.60;36.80;;;;;;111927;1259;46131;-67
2023/03/20 04:21:31;;;;;;;;;22.00;20.00;23.60;36.70;;;;;;111882;1255;55993;-67
2023/03/20 04:23:57;;;;;;;;;20.00;19.00;23.60;36.60;;;;;;111883;1259;55321;-67
2023/03/20 04:26:24;;;;;;;;;22.00;20.00;23.60;36.60;;;;;;111902;1259;49164;-67
2023/03/20 04:28:50;;;;;;;;;20.00;18.00;23.60;36.70;;;;;;111932;1259;49189;-69
2023/03/20 04:31:16;;;;;;;;;18.00;17.50;23.60;36.80;;;;;;111802;1259;46749;-68
2023/03/20 04:33:43;;;;;;;;;22.00;19.00;23.60;36.90;;;;;;111933;1258;56561;-67
2023/03/20 04:36:09;;;;;;;;;;;23.60;36.90;;;;;;111939;1255;54210;-67
2023/03/20 04:38:36;;;;;;;;;19.50;17.00;23.60;37.00;;;;;;111916;1259;50059;-67
2023/03/20 04:41:03;;;;;;;;;22.00;18.00;23.60;37.60;;;;;;111873;1259;49697;-68
2023/03/20 04:43:29;;;;;;;;;21.00;20.00;23.60;37.80;;;;;;111877;1257;46062;-66
2023/03/20 04:45:56;;;;;;;;;23.00;20.00;23.60;38.10;;;;;;111898;1259;57593;-65
2023/03/20 04:48:22;;;;;;;;;24.00;23.00;23.60;40.60;;;;;;111891;1259;53381;-65
2023/03/20 04:50:49;;;;;;;;;22.50;21.50;23.60;40.50;;;;;;111878;1259;49167;-66
2023/03/20 04:53:17;;;;;;;;;23.00;22.00;23.60;40.40;;;;;;111904;1260;50352;-65
2023/03/20 04:55:44;;;;;;;;;19.00;16.00;23.60;40.50;;;;;;111927;1259;47405;-65
2023/03/20 04:58:11;;;;;;;;;24.00;18.00;23.60;39.80;;;;;;111889;1259;57201;-66
2023/03/20 05:00:37;;;;;;;;;24.00;22.00;23.50;39.40;;;;;;111798;1259;53832;-66
2023/03/20 05:03:03;;;;;;;;;19.00;18.00;23.40;39.00;;;;;;111806;1259;49858;-65
2023/03/20 05:05:30;;;;;;;;;20.00;18.00;23.40;38.70;;;;;;111876;1259;49970;-66
2023/03/20 05:07:56;;;;;;;;;19.00;18.00;23.40;38.50;;;;;;111913;1258;46474;-66
2023/03/20 05:10:22;;;;;;;;;21.67;19.00;23.30;38.30;;;;;;111914;1259;57340;-66
2023/03/20 05:12:49;;;;;;;;;23.00;18.00;23.30;38.20;;;;;;111882;1258;54537;-66
2023/03/20 05:15:15;;;;;;;;;23.00;22.00;23.30;38.00;;;;;;111913;1255;49126;-67
2023/03/20 05:17:41;;;;;;;;;21.00;18.00;23.20;37.80;;;;;;111933;1259;49184;-67
2023/03/20 05:20:10;;;;;;;;;20.00;18.50;23.20;37.70;;;;;;111904;1259;46813;-66
2023/03/20 05:22:36;;;;;;;;;21.00;18.00;23.10;37.50;;;;;;111892;1259;56739;-67
2023/03/20 05:25:02;;;;;;;;;23.00;18.50;23.10;37.40;;;;;;111918;1255;54383;-66
2023/03/20 05:27:29;;;;;;;;;26.50;18.00;23.10;37.30;;;;;;111898;1260;49506;-66
2023/03/20 05:29:55;;;;;;;;;20.33;19.33;23.00;37.20;;;;;;111922;1259;50257;-66
2023/03/20 05:32:21;;;;;;;;;22.00;18.50;23.00;37.10;;;;;;111878;1255;46290;-68
2023/03/20 05:34:47;;;;;;;;;26.50;21.50;23.00;37.00;;;;;;111919;1259;56188;-68
2023/03/20 05:37:14;;;;;;;;;22.00;20.00;22.90;37.00;;;;;;111896;1255;54604;-73
2023/03/20 05:39:40;;;;;;;;;35.00;25.00;22.90;36.80;;;;;;111926;1259;48976;-71
2023/03/20 05:42:06;;;;;;;;;49.00;34.50;22.90;39.30;;;;;;111847;1260;49727;-65
2023/03/20 05:44:32;;;;;;;;;;;22.80;42.20;;;;;;111892;1260;46465;-65
2023/03/20 05:46:59;;;;;;;;;44.00;31.50;22.90;42.60;;;;;;111927;1259;57086;-64
2023/03/20 05:49:25;;;;;;;;;47.00;32.00;22.90;42.10;;;;;;111878;1260;53797;-64
2023/03/20 05:51:51;;;;;;;;;47.50;33.00;22.90;41.50;;;;;;111848;1259;49681;-63
2023/03/20 05:54:17;;;;;;;;;55.00;39.00;22.80;41.20;;;;;;111890;1259;49055;-63
2023/03/20 05:56:43;;;;;;;;;48.00;38.00;22.80;40.90;;;;;;111899;1259;46776;-64
2023/03/20 05:59:10;;;;;;;;;53.50;36.50;22.80;40.70;;;;;;111915;1259;57639;-63
2023/03/20 06:01:36;;;;;;;;;45.00;32.00;22.80;40.20;;;;;;111802;1259;53891;-64
2023/03/20 06:04:03;;;;;;;;;42.00;33.00;22.80;40.00;;;;;;111874;1259;49194;-63
2023/03/20 06:06:29;;;;;;;;;43.00;34.00;22.80;39.70;;;;;;111912;1260;49679;-64
2023/03/20 06:08:55;;;;;;;;;48.00;32.00;22.80;39.50;;;;;;111931;1259;46769;-64
2023/03/20 06:11:22;;;;;;;;;42.00;33.00;22.80;39.20;;;;;;111877;1255;57379;-62
2023/03/20 06:13:50;;;;;;;;;45.00;35.00;22.70;38.90;;;;;;111939;1255;54162;-63
2023/03/20 06:16:16;;;;;;;;;46.00;33.00;22.70;38.70;;;;;;111950;1259;49197;-63
2023/03/20 06:18:42;;;;;;;;;37.00;30.00;22.70;38.60;;;;;;111926;1259;49314;-65
2023/03/20 06:21:11;;;;;;;;;50.50;36.00;22.70;38.50;;;;;;111818;1259;47518;-63
2023/03/20 06:23:38;;;;;;;;;43.00;32.00;22.70;38.30;;;;;;111913;1259;57006;-64
2023/03/20 06:26:04;;;;;;;;;50.00;35.00;22.70;38.20;;;;;;111887;1259;53871;-63
2023/03/20 06:28:31;;;;;;;;;41.50;32.00;22.60;38.00;;;;;;111891;1260;49877;-63
2023/03/20 06:30:57;;;;;;;;;39.00;32.00;22.60;37.90;;;;;;111808;1261;48772;-64
2023/03/20 06:33:23;;;;;;;;;54.00;36.50;22.60;37.80;;;;;;111865;1260;47500;-64
2023/03/20 06:35:50;;;;;;;;;38.50;31.50;22.60;38.20;;;;;;111912;1259;57820;-63
2023/03/20 06:38:16;;;;;;;;;41.50;31.50;22.60;37.60;;;;;;111899;1259;54004;-64
2023/03/20 06:40:44;;;;;;;;;46.00;32.00;22.50;37.50;;;;;;111899;1256;49880;-64
2023/03/20 06:43:11;;;;;;;;;44.00;32.00;22.50;37.30;;;;;;111797;1259;48928;-64
2023/03/20 06:45:37;;;;;;;;;50.00;35.50;22.50;37.30;;;;;;111871;1255;46076;-63
2023/03/20 06:48:08;;;;;;;;;43.00;32.00;22.40;37.10;;;;;;111884;1259;57756;-64
2023/03/20 06:50:34;;;;;;;;;43.50;32.50;22.50;37.10;;;;;;111879;1259;53840;-63
2023/03/20 06:53:00;;;;;;;;;44.00;33.00;22.40;36.90;;;;;;111833;1260;49285;-64
2023/03/20 06:55:27;;;;;;;;;38.00;31.50;22.40;36.90;;;;;;111885;1260;50124;-63
2023/03/20 06:57:53;;;;;;;;;43.50;32.00;22.40;36.80;;;;;;111886;1259;46469;-64
2023/03/20 07:00:20;;;;;;;;;44.50;32.00;22.40;36.80;;;;;;111905;1259;57082;-64
2023/03/20 07:02:47;;;;;;;;;29.00;27.50;22.40;36.80;;;;;;111830;1257;54981;-64
2023/03/20 07:05:15;;;;;;;;;42.33;31.00;22.40;36.70;;;;;;111923;1259;49845;-63
2023/03/20 07:07:41;;;;;;;;;42.50;33.00;22.30;36.50;;;;;;111023;1255;1130671;-64
2023/03/20 07:10:08;;;;;;;;;39.00;30.00;22.30;36.50;;;;;;111879;1260;46986;-64
2023/03/20 07:12:34;;;;;;;;;33.33;26.33;22.30;36.40;;;;;;111816;1259;56819;-64
2023/03/20 07:15:01;;;;;;;;;32.67;25.67;22.30;36.40;;;;;;111898;1258;54750;-64
2023/03/20 07:17:27;;;;;;;;;35.00;28.50;22.30;36.30;;;;;;111912;1259;50618;-64
2023/03/20 07:19:53;;;;;;;;;34.00;28.00;22.30;36.30;;;;;;111886;1258;49674;-64
2023/03/20 07:22:30;;;;;;;;;43.50;34.00;22.30;36.20;;;;;;111813;1260;46237;-64
2023/03/20 07:24:56;;;;;;;;;32.00;28.00;22.30;36.20;;;;;;111875;1259;56981;-64
2023/03/20 07:27:23;;;;;;;;;40.00;28.00;22.30;36.20;;;;;;111874;1255;53888;-64
2023/03/20 07:29:49;;;;;;;;;31.00;27.00;22.30;36.20;;;;;;111886;1258;49125;-64
2023/03/20 07:32:15;;;;;;;;;35.00;28.00;22.30;36.10;;;;;;111834;1255;49096;-63
2023/03/20 07:34:43;;;;;;;;;30.00;27.50;22.30;36.10;;;;;;111813;1257;46106;-63
2023/03/20 07:37:09;;;;;;;;;36.00;29.00;22.30;36.10;;;;;;111914;1259;56249;-63
2023/03/20 07:39:35;;;;;;;;;32.00;23.50;22.30;36.10;;;;;;111876;1260;53471;-64
2023/03/20 07:42:01;;;;;;;;;33.50;28.00;22.30;36.00;;;;;;111869;1259;49204;-63
2023/03/20 07:44:28;;;;;;;;;37.00;30.00;22.30;36.00;;;;;;111873;1260;48888;-63
2023/03/20 07:46:54;;;;;;;;;32.00;27.00;22.40;36.00;;;;;;111838;1260;46415;-63
2023/03/20 07:49:20;;;;;;;;;;;22.30;35.80;;;;;;111877;1259;57583;-63
2023/03/20 07:51:48;;;;;;;;;39.00;30.50;22.40;35.90;;;;;;111861;1255;53424;-64
2023/03/20 07:54:14;;;;;;;;;37.00;28.00;22.40;35.90;;;;;;111914;1260;49972;-63
2023/03/20 07:56:41;;;;;;;;;26.00;24.00;22.40;35.80;;;;;;111895;1259;49760;-64
2023/03/20 07:59:07;;;;;;;;;30.00;26.00;22.40;35.70;;;;;;111921;1259;46376;-64
2023/03/20 08:01:34;;;;;;;;;31.67;29.67;22.40;35.80;;;;;;111841;1257;58409;-65
2023/03/20 08:04:00;;;;;;;;;31.00;25.00;22.50;35.70;;;;;;111903;1259;54336;-64
2023/03/20 08:06:26;;;;;;;;;38.50;29.50;22.40;35.60;;;;;;111908;1259;50014;-64
2023/03/20 08:08:52;;;;;;;;;40.00;28.00;22.50;35.60;;;;;;111898;1256;49875;-64
2023/03/20 08:11:19;;;;;;;;;35.67;24.67;22.50;35.60;;;;;;111809;1259;46751;-64
2023/03/20 08:13:45;;;;;;;;;29.00;26.00;22.50;35.50;;;;;;111867;1260;56265;-63
2023/03/20 08:16:12;;;;;;;;;27.50;25.50;22.50;35.50;;;;;;111928;1259;53902;-63
2023/03/20 08:18:38;;;;;;;;;34.00;30.00;22.50;35.50;;;;;;111933;1259;50555;-64
2023/03/20 08:21:04;;;;;;;;;30.00;24.00;22.60;35.50;;;;;;111844;1259;50383;-63
2023/03/20 08:23:31;;;;;;;;;24.00;23.00;22.70;35.50;;;;;;111900;1259;46638;-64
2023/03/20 08:25:57;;;;;;;;;29.67;22.00;22.70;35.40;;;;;;111906;1260;58047;-64
2023/03/20 08:28:23;;;;;;;;;28.00;25.00;22.70;35.30;;;;;;111905;1255;54181;-64
2023/03/20 08:30:51;;;;;;;;;33.00;26.00;22.80;35.30;;;;;;111896;1259;49200;-63
2023/03/20 08:33:18;;;;;;;;;29.00;25.00;22.80;35.80;;;;;;111832;1260;49284;-62
2023/03/20 08:35:55;;;;;;;;;37.00;29.50;22.80;35.30;;;;;;111896;1259;46012;-63
2023/03/20 08:38:21;;;;;;;;;29.00;27.00;22.80;35.20;;;;;;111895;1259;56796;-62
2023/03/20 08:40:47;;;;;;;;;26.00;24.00;22.90;35.20;;;;;;111899;1259;54238;-64
2023/03/20 08:43:13;;;;;;;;;28.00;24.00;23.00;35.20;;;;;;111826;1257;50076;-63
2023/03/20 08:45:39;;;;;;;;;30.00;25.50;23.10;35.20;;;;;;111868;1256;49430;-63
2023/03/20 08:48:06;;;;;;;;;28.00;23.00;23.20;35.20;;;;;;111922;1259;46398;-63
2023/03/20 08:50:32;;;;;;;;;27.33;23.00;23.30;35.10;;;;;;111901;1257;57335;-63
2023/03/20 08:52:58;;;;;;;;;28.00;24.00;23.30;35.10;;;;;;111833;1259;54868;-64
2023/03/20 08:55:25;;;;;;;;;31.00;24.00;23.40;35.00;;;;;;111925;1255;49611;-63
2023/03/20 08:57:53;;;;;;;;;32.00;25.00;23.50;35.00;;;;;;111907;1259;49156;-62
2023/03/20 09:00:20;;;;;;;;;32.00;26.00;23.50;34.90;;;;;;111878;1259;45824;-63
2023/03/20 09:02:46;;;;;;;;;27.00;23.50;23.50;34.80;;;;;;111847;1255;56247;-63
2023/03/20 09:05:12;;;;;;;;;25.50;22.00;23.60;34.80;;;;;;111888;1259;54506;-64
2023/03/20 09:07:39;;;;;;;;;27.00;25.00;23.60;34.70;;;;;;111903;1256;49468;-63
2023/03/20 09:10:06;;;;;;;;;27.00;23.00;23.70;34.70;;;;;;111884;1259;49739;-64
2023/03/20 09:12:32;;;;;;;;;26.50;24.50;23.70;34.60;;;;;;111812;1259;45916;-63
2023/03/20 09:15:00;;;;;;;;;38.50;26.50;23.70;34.60;;;;;;111894;1259;57277;-64
2023/03/20 09:17:26;;;;;;;;;31.33;26.33;23.70;34.50;;;;;;111888;1259;54399;-63
2023/03/20 09:19:52;;;;;;;;;23.33;21.67;23.70;34.50;;;;;;111903;1259;49493;-62
2023/03/20 09:22:19;;;;;;;;;29.00;23.00;23.80;34.60;;;;;;111823;1256;50046;-62
2023/03/20 09:24:45;;;;;;;;;27.00;24.50;23.80;34.60;;;;;;111875;1259;46937;-64
2023/03/20 09:27:15;;;;;;;;;26.50;23.50;23.80;34.50;;;;;;111888;1258;56889;-63
2023/03/20 09:29:42;;;;;;;;;24.00;19.00;23.80;34.50;;;;;;111904;1259;53595;-64
2023/03/20 09:32:11;;;;;;;;;27.00;26.00;23.90;34.60;;;;;;111820;1259;49874;-64
2023/03/20 09:34:37;;;;;;;;;24.50;22.50;23.80;34.40;;;;;;111880;1258;49804;-64
2023/03/20 09:37:04;;;;;;;;;27.50;24.00;23.90;34.50;;;;;;111870;1260;45994;-64
2023/03/20 09:39:30;;;;;;;;;28.00;26.00;23.90;34.50;;;;;;111892;1259;57450;-64
2023/03/20 09:42:02;;;;;;;;;28.33;21.67;23.90;34.40;;;;;;111845;1259;53315;-63
2023/03/20 09:44:40;;;;;;;;;26.00;23.00;24.00;34.40;;;;;;111801;1257;49761;-63
2023/03/20 09:47:24;;;;;;;;;26.00;22.00;24.00;34.40;;;;;;111899;1259;49681;-64
2023/03/20 09:50:13;;;;;;;;;25.00;23.50;24.00;34.40;;;;;;111815;1260;46589;-64
2023/03/20 09:52:45;;;;;;;;;24.00;22.00;24.10;34.40;;;;;;111679;1260;56964;-62
2023/03/20 09:55:18;;;;;;;;;26.50;23.50;24.10;34.30;;;;;;111815;1258;54359;-63
2023/03/20 09:58:00;;;;;;;;;30.00;21.00;24.20;34.30;;;;;;111806;1260;49625;-65
2023/03/20 10:00:28;;;;;;;;;30.00;21.00;24.20;34.30;;;;;;111801;1261;49446;-64
2023/03/20 10:03:01;;;;;;;;;24.00;21.00;24.30;34.30;;;;;;111723;1257;46904;-65
2023/03/20 10:05:30;;;;;;;;;23.00;21.00;24.30;34.20;;;;;;111929;1259;57451;-64
2023/03/20 10:08:04;;;;;;;;;24.00;23.33;24.40;34.20;;;;;;111889;1259;53618;-64
2023/03/20 10:11:09;;;;;;;;;34.00;25.00;24.40;34.20;;;;;;111886;1259;49458;-64
2023/03/20 10:13:54;;;;;;;;;23.00;19.00;24.40;34.20;;;;;;111723;1260;49205;-65
2023/03/20 10:16:35;;;;;;;;;26.00;24.00;24.50;34.10;;;;;;111882;1259;46489;-64
2023/03/20 10:19:04;;;;;;;;;21.67;19.33;24.50;34.10;;;;;;111887;1260;56470;-64
2023/03/20 10:22:20;;;;;;;;;24.00;19.33;24.60;34.10;;;;;;111828;1256;53512;-64
2023/03/20 10:24:53;;;;;;;;;22.00;18.00;24.60;34.00;;;;;;111343;1259;48991;-64
2023/03/20 10:27:35;;;;;;;;;24.50;22.00;24.60;33.90;;;;;;111817;1261;49419;-64
2023/03/20 10:30:19;;;;;;;;;22.00;20.00;24.70;34.00;;;;;;111919;1259;47418;-63
2023/03/20 10:32:51;;;;;;;;;21.00;20.00;24.80;34.00;;;;;;111841;1255;56549;-63
2023/03/20 10:36:07;;;;;;;;;24.50;19.00;24.80;34.00;;;;;;111856;1259;53576;-63
2023/03/20 10:38:41;;;;;;;;;24.00;23.00;24.80;33.90;;;;;;111519;1257;49459;-64
2023/03/20 10:41:33;;;;;;;;;23.00;21.00;24.90;33.90;;;;;;111754;1260;50558;-63
2023/03/20 10:44:00;;;;;;;;;23.00;21.00;24.90;33.90;;;;;;111915;1260;46631;-64
2023/03/20 10:46:30;;;;;;;;;26.50;18.00;24.90;33.80;;;;;;111842;1259;56476;-64
2023/03/20 10:49:09;;;;;;;;;24.00;19.50;24.90;34.30;;;;;;111823;1261;53612;-63
2023/03/20 10:51:35;;;;;;;;;26.00;24.00;24.90;33.80;;;;;;111714;1260;49695;-64
2023/03/20 10:54:14;;;;;;;;;24.00;20.00;25.00;33.80;;;;;;111861;1259;49727;-65
2023/03/20 10:56:46;;;;;;;;;22.50;21.50;25.00;33.80;;;;;;111806;1260;46126;-64
2023/03/20 10:59:23;;;;;;;;;22.50;19.50;25.00;33.80;;;;;;111805;1256;56555;-65
2023/03/20 11:01:50;;;;;;;;;23.50;20.50;25.00;33.70;;;;;;111866;1257;54781;-64
2023/03/20 11:04:16;;;;;;;;;22.00;18.00;25.00;33.70;;;;;;111881;1259;50365;-64
2023/03/20 11:07:02;;;;;;;;;28.00;19.00;25.10;33.70;;;;;;111910;1259;49364;-64
2023/03/20 11:09:31;;;;;;;;;25.00;24.00;25.10;33.70;;;;;;111562;1260;45924;-64
2023/03/20 11:12:00;;;;;;;;;23.00;22.00;25.10;33.60;;;;;;111875;1259;57133;-64
2023/03/20 11:14:32;;;;;;;;;29.50;23.50;25.10;33.60;;;;;;111886;1259;53979;-63
2023/03/20 11:17:02;;;;;;;;;21.33;20.33;25.10;33.60;;;;;;111910;1259;48888;-64
2023/03/20 11:19:36;;;;;;;;;25.00;21.00;25.10;33.60;;;;;;111876;1260;49034;-64
2023/03/20 11:22:30;;;;;;;;;23.00;21.00;25.10;33.60;;;;;;111889;1255;47555;-64
2023/03/20 11:25:03;;;;;;;;;25.00;23.00;25.10;33.60;;;;;;111933;1259;56981;-64
2023/03/20 11:27:31;;;;;;;;;23.00;20.00;25.10;33.60;;;;;;111906;1259;54015;-64
2023/03/20 11:30:02;;;;;;;;;21.00;20.00;25.10;33.60;;;;;;111893;1259;49319;-64
2023/03/20 11:32:35;;;;;;;;;18.00;16.00;25.20;33.70;;;;;;111750;1261;49020;-64
2023/03/20 11:35:21;;;;;;;;;22.00;20.00;25.10;33.50;;;;;;111828;1260;46698;-64
2023/03/20 11:37:50;;;;;;;;;19.00;17.00;25.10;33.50;;;;;;111895;1259;56855;-63
2023/03/20 11:40:25;;;;;;;;;20.50;19.00;25.20;33.60;;;;;;111906;1260;54284;-63
2023/03/20 11:43:12;;;;;;;;;22.00;19.00;25.20;33.60;;;;;;111776;1255;48928;-63
2023/03/20 11:45:41;;;;;;;;;19.50;18.00;25.20;33.60;;;;;;111799;1261;49763;-65
2023/03/20 11:48:18;;;;;;;;;23.00;19.00;25.20;33.50;;;;;;111915;1255;46201;-65
2023/03/20 11:50:59;;;;;;;;;21.00;19.00;25.20;33.50;;;;;;111826;1260;57133;-64
2023/03/20 11:53:38;;;;;;;;;18.00;17.00;25.20;33.50;;;;;;111901;1259;54188;-63
2023/03/20 11:56:09;;;;;;;;;23.00;21.00;25.20;33.40;;;;;;111874;1259;49258;-65
2023/03/20 11:58:46;;;;;;;;;21.00;18.00;25.30;33.50;;;;;;111919;1259;50597;-64
2023/03/20 12:01:12;;;;;;;;;20.50;17.50;25.30;33.50;;;;;;111752;1261;46758;-64
2023/03/20 12:03:56;;;;;;;;;22.00;20.00;25.30;33.40;;;;;;111888;1260;57413;-64
2023/03/20 12:06:42;;;;;;;;;22.00;20.00;25.30;33.40;;;;;;111870;1259;54292;-64
2023/03/20 12:09:34;;;;;;;;;22.00;18.00;25.30;33.40;;;;;;111874;1258;49458;-64
2023/03/20 12:12:19;;;;;;;;;;;25.30;33.40;;;;;;111656;1255;49658;-64
2023/03/20 12:15:08;;;;;;;;;17.00;15.00;25.30;33.30;;;;;;111919;1257;47336;-64
2023/03/20 12:17:54;;;;;;;;;25.50;18.00;25.30;33.30;;;;;;111932;1258;55914;-64
2023/03/20 12:20:50;;;;;;;;;22.33;21.00;25.30;33.30;;;;;;111839;1259;54118;-64
2023/03/20 12:23:53;;;;;;;;;21.50;19.00;25.40;33.30;;;;;;111660;1260;49554;-64
2023/03/20 12:26:25;;;;;;;;;17.00;16.00;25.40;33.30;;;;;;111880;1260;49482;-64
2023/03/20 12:29:07;;;;;;;;;19.00;17.00;25.40;33.30;;;;;;111856;1260;46107;-63
2023/03/20 12:32:02;;;;;;;;;24.00;18.00;25.40;33.30;;;;;;111736;1260;56732;-64
2023/03/20 12:34:31;;;;;;;;;22.00;16.00;25.40;33.30;;;;;;111895;1259;55131;-64
2023/03/20 12:36:57;;;;;;;;;23.00;18.00;25.40;33.20;;;;;;111832;1260;50048;-64